Time;durP1;ratioP1;P1;durP2;ratioP2;P2;SDS_P1;SDS_P2;PMS_P1;PMS_P2;Temp;Humidity;BMP_temperature;BMP_pressure;BME280_temperature;BME280_humidity;BME280_pressure;Samples;Min_cycle;Max_cycle;Signal;HPM_P1;HPM_P2
2024/01/18 00:00:07;;;;;;;19.30;16.40;;;;;;;-3.72;100.00;99186.50;1028453;28;20843;-84
2024/01/18 00:00:39;;;;;;;22.95;18.30;;;;;;;-3.68;100.00;99185.19;1032414;28;20439;-84
2024/01/18 00:01:11;;;;;;;24.45;17.88;;;;;;;-3.70;100.00;99187.13;1031884;28;20640;-84
2024/01/18 00:01:49;;;;;;;22.20;18.10;;;;;;;-3.74;100.00;99193.66;1031998;28;20743;-84
2024/01/18 00:02:22;;;;;;;21.73;16.85;;;;;;;-3.69;100.00;99195.75;1036372;28;20315;-84
2024/01/18 00:02:54;;;;;;;19.75;17.08;;;;;;;-3.70;100.00;99199.34;1033328;28;20339;-84
2024/01/18 00:03:25;;;;;;;21.70;16.92;;;;;;;-3.70;100.00;99197.53;1031094;28;20297;-84
2024/01/18 00:03:58;;;;;;;21.23;17.67;;;;;;;-3.62;100.00;99197.53;1031057;28;20321;-84
2024/01/18 00:04:30;;;;;;;24.27;18.75;;;;;;;-3.57;100.00;99203.03;1034179;28;20305;-84
2024/01/18 00:05:01;;;;;;;27.05;17.55;;;;;;;-3.44;100.00;99205.13;1029133;28;20352;-84
2024/01/18 00:05:33;;;;;;;22.77;17.77;;;;;;;-3.52;100.00;99202.56;1033020;28;20306;-84
2024/01/18 00:06:05;;;;;;;21.50;17.42;;;;;;;-3.46;100.00;99201.88;1034539;28;20803;-84
2024/01/18 00:06:37;;;;;;;24.77;18.80;;;;;;;-3.37;100.00;99200.06;1031669;28;20838;-84
2024/01/18 00:07:09;;;;;;;23.55;17.13;;;;;;;-3.31;100.00;99204.59;1037374;28;20295;-85
2024/01/18 00:07:40;;;;;;;23.65;17.67;;;;;;;-3.32;100.00;99201.19;1027544;28;20333;-84
2024/01/18 00:08:12;;;;;;;25.13;18.90;;;;;;;-3.29;100.00;99202.63;1029435;28;20300;-83
2024/01/18 00:08:43;;;;;;;25.70;18.60;;;;;;;-3.28;100.00;99199.09;1027731;28;20359;-83
2024/01/18 00:09:15;;;;;;;28.08;19.67;;;;;;;-3.22;100.00;99196.63;1034728;28;20301;-84
2024/01/18 00:09:47;;;;;;;27.23;19.80;;;;;;;-3.22;100.00;99201.81;1028943;28;20328;-84
2024/01/18 00:10:26;;;;;;;28.08;19.17;;;;;;;-3.21;100.00;99200.03;1033618;28;20297;-84
2024/01/18 00:10:59;;;;;;;33.22;20.27;;;;;;;-3.19;100.00;99203.28;1038097;28;20296;-84
2024/01/18 00:11:31;;;;;;;22.80;19.02;;;;;;;-3.18;100.00;99197.91;1031110;28;20297;-84
2024/01/18 00:12:02;;;;;;;24.58;18.10;;;;;;;-3.19;100.00;99198.06;1028776;28;20611;-84
2024/01/18 00:12:36;;;;;;;23.95;19.70;;;;;;;-3.28;100.00;99204.28;1028997;28;20762;-84
2024/01/18 00:13:08;;;;;;;24.17;18.27;;;;;;;-3.36;100.00;99202.50;1034577;28;20309;-84
2024/01/18 00:13:39;;;;;;;21.70;18.75;;;;;;;-3.35;100.00;99203.31;1031146;28;20312;-84
2024/01/18 00:14:11;;;;;;;23.38;19.00;;;;;;;-3.43;100.00;99204.97;1035646;28;20304;-84
2024/01/18 00:14:43;;;;;;;25.67;18.17;;;;;;;-3.46;100.00;99207.91;1027651;28;20304;-84
2024/01/18 00:15:14;;;;;;;21.35;18.13;;;;;;;-3.45;100.00;99206.94;1026683;28;20377;-84
2024/01/18 00:15:46;;;;;;;24.77;19.23;;;;;;;-3.44;100.00;99205.13;1027196;28;20302;-84
2024/01/18 00:16:18;;;;;;;24.58;18.15;;;;;;;-3.41;100.00;99207.41;1027288;28;20290;-84
2024/01/18 00:16:49;;;;;;;22.02;19.02;;;;;;;-3.37;100.00;99207.88;1033603;28;20308;-84
2024/01/18 00:17:21;;;;;;;22.10;18.17;;;;;;;-3.36;100.00;99206.91;1032481;28;20301;-84
2024/01/18 00:17:52;;;;;;;25.48;17.77;;;;;;;-3.33;100.00;99206.56;1034826;28;20297;-84
2024/01/18 00:18:24;;;;;;;21.73;17.88;;;;;;;-3.44;100.00;99211.16;1028470;28;20302;-84
2024/01/18 00:18:57;;;;;;;24.83;19.02;;;;;;;-3.39;100.00;99205.44;1034328;28;20854;-84
2024/01/18 00:19:29;;;;;;;25.50;18.05;;;;;;;-3.38;100.00;99216.66;1036507;28;20713;-84
2024/01/18 00:20:00;;;;;;;25.05;17.95;;;;;;;-3.44;100.00;99205.94;1034442;28;20414;-84
2024/01/18 00:20:32;;;;;;;23.42;17.70;;;;;;;-3.42;100.00;99214.41;1034811;28;20303;-84
2024/01/18 00:21:04;;;;;;;26.38;17.52;;;;;;;-3.53;100.00;99214.75;1034578;28;20312;-84
2024/01/18 00:21:36;;;;;;;31.40;18.83;;;;;;;-3.56;100.00;99209.91;1033531;28;20304;-85
2024/01/18 00:22:08;;;;;;;22.63;18.10;;;;;;;-3.52;100.00;99211.19;1031810;28;20685;-84
2024/01/18 00:22:40;;;;;;;21.98;17.70;;;;;;;-3.52;100.00;99208.56;1031641;28;20312;-84
2024/01/18 00:23:11;;;;;;;22.33;18.17;;;;;;;-3.55;100.00;99213.31;1031072;28;20316;-84
2024/01/18 00:23:43;;;;;;;22.55;18.95;;;;;;;-3.57;100.00;99221.25;1037549;28;20292;-84
2024/01/18 00:24:15;;;;;;;20.48;16.88;;;;;;;-3.57;100.00;99218.66;1033003;28;20308;-84
2024/01/18 00:24:46;;;;;;;22.23;18.45;;;;;;;-3.46;100.00;99218.31;1031178;28;20396;-84
2024/01/18 00:25:19;;;;;;;21.98;17.02;;;;;;;-3.36;100.00;99217.31;1032736;28;20466;-84
2024/01/18 00:25:51;;;;;;;20.30;18.00;;;;;;;-3.29;100.00;99218.25;1028930;28;20664;-84
2024/01/18 00:26:22;;;;;;;26.65;19.60;;;;;;;-3.39;100.00;99215.84;1022369;28;20299;-84
2024/01/18 00:26:54;;;;;;;21.38;17.75;;;;;;;-3.36;100.00;99217.31;1027276;28;20376;-84
2024/01/18 00:27:25;;;;;;;22.73;18.23;;;;;;;-3.40;100.00;99221.22;1029411;28;20316;-84
2024/01/18 00:27:57;;;;;;;25.05;17.55;;;;;;;-3.56;100.00;99222.91;1028861;28;20387;-84
2024/01/18 00:28:29;;;;;;;20.90;18.42;;;;;;;-3.67;100.00;99218.03;1028277;28;20301;-84
2024/01/18 00:29:00;;;;;;;23.20;18.45;;;;;;;-3.68;100.00;99221.59;1032790;28;20344;-84
2024/01/18 00:29:33;;;;;;;25.38;19.13;;;;;;;-3.69;100.00;99222.59;1032533;28;20788;-84
2024/01/18 00:30:05;;;;;;;23.75;19.10;;;;;;;-3.62;100.00;99220.13;1038973;28;20829;-84
2024/01/18 00:30:37;;;;;;;22.88;18.25;;;;;;;-3.59;100.00;99227.59;1033750;28;20858;-84
2024/01/18 00:31:09;;;;;;;22.55;18.95;;;;;;;-3.52;100.00;99224.19;1027203;28;20298;-84
2024/01/18 00:31:41;;;;;;;26.73;19.17;;;;;;;-3.45;100.00;99227.75;1026979;28;20676;-84
2024/01/18 00:32:12;;;;;;;22.30;18.38;;;;;;;-3.51;100.00;99225.81;1031352;28;20307;-84
2024/01/18 00:32:44;;;;;;;23.90;17.08;;;;;;;-3.48;100.00;99224.66;1033268;28;20306;-84
2024/01/18 00:33:16;;;;;;;25.38;18.95;;;;;;;-3.40;100.00;99226.44;1028863;28;20700;-84
2024/01/18 00:33:48;;;;;;;22.50;17.65;;;;;;;-3.40;100.00;99231.66;1028421;28;20310;-84
2024/01/18 00:34:19;;;;;;;20.92;18.30;;;;;;;-3.40;100.00;99224.66;1031493;28;20297;-84
2024/01/18 00:34:51;;;;;;;23.35;18.48;;;;;;;-3.38;100.00;99230.50;1027104;28;20302;-84
2024/01/18 00:35:23;;;;;;;27.27;18.65;;;;;;;-3.34;100.00;99231.78;1037480;28;20307;-84
2024/01/18 00:35:55;;;;;;;24.23;18.05;;;;;;;-3.36;100.00;99231.13;1038534;28;20397;-84
2024/01/18 00:36:27;;;;;;;24.30;19.70;;;;;;;-3.40;100.00;99232.44;1037551;28;20332;-84
2024/01/18 00:36:59;;;;;;;23.20;18.98;;;;;;;-3.34;100.00;99233.56;1035045;28;20308;-84
2024/01/18 00:37:30;;;;;;;23.60;18.80;;;;;;;-3.31;100.00;99230.63;1035046;28;20296;-84
2024/01/18 00:38:02;;;;;;;20.42;18.20;;;;;;;-3.31;100.00;99235.84;1032799;28;20301;-84
2024/01/18 00:38:34;;;;;;;22.90;19.05;;;;;;;-3.32;100.00;99235.03;1030569;28;20293;-85
2024/01/18 00:39:10;;;;;;;23.40;19.23;;;;;;;-3.32;100.00;99229.81;1028404;28;20308;-83
2024/01/18 00:39:42;;;;;;;24.77;18.85;;;;;;;-3.29;100.00;99233.88;1032110;28;20308;-84
2024/01/18 00:40:14;;;;;;;21.58;17.70;;;;;;;-3.27;100.00;99237.16;1035259;28;20312;-84
2024/01/18 00:40:46;;;;;;;23.63;18.95;;;;;;;-3.24;100.00;99236.81;1030268;28;20308;-84
2024/01/18 00:41:17;;;;;;;23.23;18.90;;;;;;;-3.28;100.00;99238.13;1034539;28;20331;-84
2024/01/18 00:41:49;;;;;;;27.92;20.83;;;;;;;-3.25;100.00;99241.22;1031701;28;20301;-84
2024/01/18 00:42:21;;;;;;;21.40;17.88;;;;;;;-3.53;100.00;99239.97;1031374;28;20823;-84
2024/01/18 00:42:53;;;;;;;24.35;20.83;;;;;;;-3.67;100.00;99244.03;1029365;28;20376;-84
2024/01/18 00:43:24;;;;;;;24.75;18.38;;;;;;;-3.72;100.00;99248.94;1031094;28;20671;-84
2024/01/18 00:43:56;;;;;;;22.23;17.52;;;;;;;-3.75;100.00;99249.25;1028156;28;20349;-84
2024/01/18 00:44:28;;;;;;;22.85;19.33;;;;;;;-3.75;100.00;99244.06;1037641;28;20296;-84
2024/01/18 00:44:59;;;;;;;23.92;17.95;;;;;;;-3.75;100.00;99239.66;1037795;28;20970;-84
2024/01/18 00:45:31;;;;;;;20.85;18.08;;;;;;;-3.82;100.00;99246.50;1033415;28;20398;-84
2024/01/18 00:46:04;;;;;;;26.27;19.27;;;;;;;-3.72;100.00;99242.91;1031001;28;20305;-84
2024/01/18 00:46:35;;;;;;;23.42;18.23;;;;;;;-3.71;100.00;99244.53;1037005;28;20300;-84
2024/01/18 00:47:07;;;;;;;21.67;18.02;;;;;;;-3.71;100.00;99245.34;1028877;28;20855;-84
2024/01/18 00:47:38;;;;;;;22.52;16.63;;;;;;;-3.73;100.00;99252.50;1034655;28;20296;-84
2024/01/18 00:48:10;;;;;;;24.40;17.35;;;;;;;-3.68;100.00;99250.22;1026943;28;20294;-84
2024/01/18 00:48:42;;;;;;;28.17;18.80;;;;;;;-3.96;100.00;99246.31;1028587;28;20309;-84
2024/01/18 00:49:14;;;;;;;21.60;17.63;;;;;;;-4.04;100.00;99249.75;1033487;28;20616;-84
2024/01/18 00:49:45;;;;;;;22.70;16.92;;;;;;;-4.10;100.00;99243.41;1033455;28;20399;-84
2024/01/18 00:50:17;;;;;;;18.05;15.25;;;;;;;-4.09;100.00;99242.44;1039131;28;20793;-84
2024/01/18 00:50:49;;;;;;;23.27;17.42;;;;;;;-4.05;100.00;99250.72;1035421;28;20292;-84
2024/01/18 00:51:21;;;;;;;23.17;16.33;;;;;;;-4.00;100.00;99248.44;1034950;28;20307;-84
2024/01/18 00:51:53;;;;;;;25.75;16.70;;;;;;;-3.93;100.00;99252.00;1034405;28;20312;-84
2024/01/18 00:52:25;;;;;;;18.88;15.65;;;;;;;-3.88;100.00;99246.31;1031135;28;20297;-84
2024/01/18 00:52:56;;;;;;;22.40;16.23;;;;;;;-3.92;100.00;99253.63;1030644;28;20308;-84
2024/01/18 00:53:28;;;;;;;23.77;17.88;;;;;;;-3.93;100.00;99252.00;1032362;28;20516;-84
2024/01/18 00:54:02;;;;;;;20.70;16.92;;;;;;;-3.98;100.00;99253.47;1030507;28;20862;-84
2024/01/18 00:54:33;;;;;;;25.77;18.15;;;;;;;-4.07;100.00;99250.88;1028198;28;21862;-84
2024/01/18 00:55:06;;;;;;;22.45;17.92;;;;;;;-4.09;100.00;99258.03;1028876;28;20297;-84
2024/01/18 00:55:38;;;;;;;21.08;16.30;;;;;;;-4.09;100.00;99247.63;1029980;28;20712;-84
2024/01/18 00:56:09;;;;;;;21.70;18.27;;;;;;;-4.09;100.00;99249.41;1026696;28;20306;-84
2024/01/18 00:56:42;;;;;;;20.65;16.27;;;;;;;-4.08;100.00;99245.84;1030505;28;20841;-84
2024/01/18 00:57:13;;;;;;;21.88;16.88;;;;;;;-4.11;100.00;99244.38;1025841;28;20310;-84
2024/01/18 00:57:45;;;;;;;26.38;17.75;;;;;;;-4.10;100.00;99242.59;1031747;28;20298;-84
2024/01/18 00:58:17;;;;;;;19.52;16.98;;;;;;;-4.03;100.00;99247.97;1038163;28;20401;-84
2024/01/18 00:58:49;;;;;;;21.65;17.05;;;;;;;-3.98;100.00;99256.09;1039606;28;20316;-84
2024/01/18 00:59:21;;;;;;;20.35;17.08;;;;;;;-3.87;100.00;99253.16;1035066;28;20862;-84
2024/01/18 00:59:53;;;;;;;21.65;16.90;;;;;;;-3.90;100.00;99243.88;1038096;28;20670;-84
2024/01/18 01:00:24;;;;;;;22.13;18.55;;;;;;;-4.01;100.00;99251.22;1038060;28;20405;-84
2024/01/18 01:00:56;;;;;;;25.77;17.02;;;;;;;-4.10;100.00;99246.00;1033716;28;20304;-84
2024/01/18 01:01:28;;;;;;;20.05;17.30;;;;;;;-4.14;100.00;99259.47;1028186;28;20724;-84
2024/01/18 01:01:59;;;;;;;21.86;16.88;;;;;;;-4.09;100.00;99246.81;1026247;28;20668;-83
2024/01/18 01:02:31;;;;;;;24.90;18.20;;;;;;;-4.02;100.00;99246.97;1034923;28;20049;-84
2024/01/18 01:03:03;;;;;;;29.70;17.25;;;;;;;-4.02;100.00;99246.97;1036739;28;20837;-85
2024/01/18 01:03:34;;;;;;;27.92;18.55;;;;;;;-3.89;100.00;99252.50;1033711;28;20306;-84
2024/01/18 01:04:06;;;;;;;19.85;17.50;;;;;;;-3.84;100.00;99256.22;1031729;28;20862;-84
2024/01/18 01:04:38;;;;;;;24.88;18.77;;;;;;;-3.75;100.00;99259.66;1021332;28;20340;-84
2024/01/18 01:05:10;;;;;;;25.45;18.48;;;;;;;-3.77;100.00;99256.41;1032392;28;20324;-84
2024/01/18 01:05:42;;;;;;;27.17;19.15;;;;;;;-3.80;100.00;99261.94;1027602;28;20384;-84
2024/01/18 01:06:13;;;;;;;22.88;18.95;;;;;;;-3.90;100.00;99261.28;1032799;28;20296;-84
2024/01/18 01:06:45;;;;;;;22.40;18.55;;;;;;;-3.88;100.00;99256.72;1028455;28;20583;-84
2024/01/18 01:07:16;;;;;;;23.65;18.77;;;;;;;-3.80;100.00;99260.16;1028868;28;20301;-84
2024/01/18 01:07:48;;;;;;;26.23;19.48;;;;;;;-3.81;100.00;99260.31;1024543;28;20334;-84
2024/01/18 01:08:20;;;;;;;21.25;17.35;;;;;;;-3.76;100.00;99263.25;1027931;28;20433;-84
2024/01/18 01:08:52;;;;;;;25.55;19.15;;;;;;;-3.84;100.00;99264.03;1027314;28;20344;-84
2024/01/18 01:09:24;;;;;;;24.38;17.65;;;;;;;-3.97;100.00;99260.31;1034393;28;20435;-84
2024/01/18 01:09:56;;;;;;;23.35;18.52;;;;;;;-4.01;100.00;99253.81;1026936;28;20293;-84
2024/01/18 01:10:27;;;;;;;24.38;18.33;;;;;;;-4.18;100.00;99258.97;1034223;28;20297;-84
2024/01/18 01:11:05;;;;;;;23.52;18.05;;;;;;;-4.08;100.00;99257.06;1032601;28;20405;-84
2024/01/18 01:11:37;;;;;;;21.60;17.17;;;;;;;-3.96;100.00;99264.53;1031769;28;20814;-83
2024/01/18 01:12:08;;;;;;;22.85;16.88;;;;;;;-3.95;100.00;99264.38;1032966;28;20652;-84
2024/01/18 01:12:40;;;;;;;24.25;17.08;;;;;;;-3.99;100.00;99255.28;1039069;28;20843;-84
2024/01/18 01:13:12;;;;;;;24.00;18.70;;;;;;;-4.07;100.00;99260.47;1035606;28;20339;-84
2024/01/18 01:13:44;;;;;;;22.48;17.20;;;;;;;-4.00;100.00;99260.63;1029775;28;20305;-84
2024/01/18 01:14:16;;;;;;;26.17;18.45;;;;;;;-3.89;100.00;99257.69;1026995;28;20381;-84
2024/01/18 01:14:48;;;;;;;23.23;16.88;;;;;;;-3.99;100.00;99263.06;1035268;28;20308;-84
2024/01/18 01:15:19;;;;;;;20.58;17.27;;;;;;;-3.93;100.00;99261.59;1032369;28;20293;-84
2024/01/18 01:15:51;;;;;;;29.40;18.35;;;;;;;-3.95;100.00;99258.34;1032288;28;20371;-84
2024/01/18 01:16:24;;;;;;;25.70;18.60;;;;;;;-3.90;100.00;99261.28;1034342;28;20391;-84
2024/01/18 01:16:55;;;;;;;25.80;18.65;;;;;;;-3.86;100.00;99262.56;1029910;28;20061;-84
2024/01/18 01:17:27;;;;;;;22.30;18.90;;;;;;;-3.83;100.00;99259.69;1031356;28;20763;-84
2024/01/18 01:17:59;;;;;;;26.35;19.23;;;;;;;-3.81;100.00;99255.13;1035678;28;20363;-84
2024/01/18 01:18:30;;;;;;;23.70;16.85;;;;;;;-3.82;100.00;99258.69;1031468;28;20384;-84
2024/01/18 01:19:02;;;;;;;20.95;17.15;;;;;;;-3.88;100.00;99254.13;1029253;28;20298;-83
2024/01/18 01:19:34;;;;;;;23.63;17.83;;;;;;;-3.94;100.00;99262.59;1032988;28;20297;-84
2024/01/18 01:20:09;;;;;;;24.73;18.67;;;;;;;-4.08;100.00;99254.47;1034547;28;20304;-84
2024/01/18 01:20:41;;;;;;;21.70;18.25;;;;;;;-4.21;100.00;99259.31;1030828;28;20304;-84
2024/01/18 01:21:13;;;;;;;25.88;18.95;;;;;;;-4.11;100.00;99265.19;1028355;28;20308;-84
2024/01/18 01:21:44;;;;;;;25.92;19.28;;;;;;;-4.05;100.00;99268.91;1028008;28;20957;-84
2024/01/18 01:22:16;;;;;;;25.13;19.58;;;;;;;-4.14;100.00;99275.88;1034901;28;20057;-84
2024/01/18 01:22:48;;;;;;;24.52;18.90;;;;;;;-4.21;100.00;99269.69;1027403;28;20309;-84
2024/01/18 01:23:19;;;;;;;26.60;20.63;;;;;;;-4.21;100.00;99269.69;1029263;28;20302;-84
2024/01/18 01:23:51;;;;;;;23.90;19.25;;;;;;;-4.31;100.00;99273.44;1028632;28;20309;-84
2024/01/18 01:24:23;;;;;;;21.40;17.90;;;;;;;-4.31;100.00;99270.84;1025933;28;20366;-84
2024/01/18 01:24:55;;;;;;;23.10;19.45;;;;;;;-4.31;100.00;99271.66;1029010;28;20305;-84
2024/01/18 01:25:26;;;;;;;25.40;17.75;;;;;;;-4.36;100.00;99273.91;1031416;28;20799;-84
2024/01/18 01:25:58;;;;;;;21.88;18.50;;;;;;;-4.35;100.00;99278.13;1027101;28;20310;-84
2024/01/18 01:26:29;;;;;;;23.13;18.48;;;;;;;-4.27;100.00;99285.13;1029816;28;20285;-84
2024/01/18 01:27:01;;;;;;;23.38;17.75;;;;;;;-4.18;100.00;99274.56;1025305;28;20295;-84
2024/01/18 01:27:33;;;;;;;25.05;18.55;;;;;;;-4.12;100.00;99278.31;1023513;28;20299;-84
2024/01/18 01:28:05;;;;;;;20.77;17.67;;;;;;;-4.09;100.00;99284.03;1027953;28;20302;-84
2024/01/18 01:28:36;;;;;;;26.77;18.25;;;;;;;-4.13;100.00;99285.31;1027498;28;20306;-84
2024/01/18 01:29:10;;;;;;;22.05;16.75;;;;;;;-4.15;100.00;99287.25;1028971;28;20942;-84
2024/01/18 01:29:42;;;;;;;22.08;17.85;;;;;;;-4.23;100.00;99284.66;1031698;28;20349;-84
2024/01/18 01:30:14;;;;;;;21.48;17.77;;;;;;;-4.32;100.00;99277.81;1027457;28;20740;-84
2024/01/18 01:30:46;;;;;;;22.40;18.48;;;;;;;-4.36;100.00;99286.91;1029716;28;20377;-84
2024/01/18 01:31:17;;;;;;;26.50;20.16;;;;;;;-4.30;100.00;99281.06;1029448;28;20294;-84
2024/01/18 01:31:51;;;;;;;23.05;17.65;;;;;;;-4.28;100.00;99288.69;1025534;28;20190;-84
2024/01/18 01:32:23;;;;;;;24.35;18.05;;;;;;;-4.23;100.00;99291.63;1025135;28;20907;-84
2024/01/18 01:32:54;;;;;;;23.52;17.95;;;;;;;-4.17;100.00;99291.81;1031509;28;20796;-84
2024/01/18 01:33:28;;;;;;;22.82;19.48;;;;;;;-4.12;100.00;99293.91;1037260;28;20434;-84
2024/01/18 01:34:00;;;;;;;21.27;17.88;;;;;;;-4.17;100.00;99286.59;1034361;28;20041;-84
2024/01/18 01:34:32;;;;;;;31.85;19.00;;;;;;;-4.26;100.00;99290.16;1030930;28;20324;-84
2024/01/18 01:35:04;;;;;;;23.15;19.65;;;;;;;-4.23;100.00;99292.44;1038223;28;20441;-84
2024/01/18 01:35:35;;;;;;;27.05;19.80;;;;;;;-4.26;100.00;99292.75;1038097;28;20422;-84
2024/01/18 01:36:07;;;;;;;24.38;17.45;;;;;;;-4.19;100.00;99296.34;1034942;28;20395;-84
2024/01/18 01:36:39;;;;;;;21.45;19.17;;;;;;;-4.19;100.00;99288.56;1027829;28;20294;-84
2024/01/18 01:37:13;;;;;;;26.70;18.98;;;;;;;-4.08;100.00;99300.44;1024331;28;20307;-84
2024/01/18 01:37:45;;;;;;;26.38;20.55;;;;;;;-4.00;100.00;99297.03;1028804;28;20808;-84
2024/01/18 01:38:17;;;;;;;25.13;18.75;;;;;;;-3.88;100.00;99303.53;1028934;28;20400;-84
2024/01/18 01:38:48;;;;;;;23.95;19.77;;;;;;;-3.82;100.00;99308.13;1039787;28;20296;-84
2024/01/18 01:39:20;;;;;;;24.02;20.52;;;;;;;-3.91;100.00;99309.06;1031787;28;20305;-83
2024/01/18 01:39:52;;;;;;;20.75;18.52;;;;;;;-3.91;100.00;99306.47;1029699;28;20298;-84
2024/01/18 01:40:23;;;;;;;26.40;19.48;;;;;;;-3.99;100.00;99303.88;1027976;28;20312;-83
2024/01/18 01:40:55;;;;;;;22.73;19.98;;;;;;;-4.01;100.00;99313.63;1035492;28;20435;-84
2024/01/18 01:41:26;;;;;;;21.63;18.75;;;;;;;-4.01;100.00;99301.44;1033590;28;20304;-84
2024/01/18 01:41:58;;;;;;;26.30;19.60;;;;;;;-3.91;100.00;99306.47;1031240;28;20956;-84
2024/01/18 01:42:30;;;;;;;30.22;20.28;;;;;;;-3.93;100.00;99303.22;1032813;28;20362;-84
2024/01/18 01:43:01;;;;;;;26.23;19.80;;;;;;;-3.91;100.00;99312.47;1038723;28;20097;-84
2024/01/18 01:43:33;;;;;;;24.88;20.95;;;;;;;-3.83;100.00;99322.09;1038540;28;20307;-84
2024/01/18 01:44:05;;;;;;;28.45;21.25;;;;;;;-3.85;100.00;99321.41;1028549;28;20305;-83
2024/01/18 01:44:36;;;;;;;28.08;19.17;;;;;;;-3.89;100.00;99320.13;1032974;28;20302;-83
2024/01/18 01:45:09;;;;;;;24.30;19.80;;;;;;;-3.89;100.00;99320.13;1037570;28;20307;-84
2024/01/18 01:45:40;;;;;;;26.05;19.95;;;;;;;-3.94;100.00;99322.41;1035301;28;20379;-84
2024/01/18 01:46:12;;;;;;;25.48;19.15;;;;;;;-4.14;100.00;99322.69;1035226;28;20353;-84
2024/01/18 01:46:44;;;;;;;23.63;19.17;;;;;;;-4.21;100.00;99315.69;1031126;28;20329;-84
2024/01/18 01:47:16;;;;;;;25.80;19.10;;;;;;;-4.15;100.00;99326.25;1035362;28;20304;-84
2024/01/18 01:47:47;;;;;;;23.25;17.20;;;;;;;-4.20;100.00;99325.91;1034521;28;20305;-84
2024/01/18 01:48:19;;;;;;;28.42;20.68;;;;;;;-4.20;100.00;99328.53;1026997;28;20305;-83
2024/01/18 01:48:56;;;;;;;23.08;18.04;;;;;;;-4.24;100.00;99324.63;1027559;28;20046;-84
2024/01/18 01:49:28;;;;;;;23.05;18.83;;;;;;;-4.20;100.00;99325.09;1032027;28;20049;-84
2024/01/18 01:50:00;;;;;;;23.38;18.85;;;;;;;-4.16;100.00;99324.63;1029028;28;20300;-84
2024/01/18 01:50:32;;;;;;;21.98;18.48;;;;;;;-4.17;100.00;99322.19;1036405;28;20742;-84
2024/01/18 01:51:04;;;;;;;21.30;18.92;;;;;;;-4.24;100.00;99322.00;1037716;28;20292;-84
2024/01/18 01:51:48;;;;;;;22.58;18.05;;;;;;;-4.17;100.00;99330.78;1027191;28;20436;-84
2024/01/18 01:52:19;;;;;;;27.16;17.46;;;;;;;-4.18;100.00;99326.56;1030718;28;20324;-84
2024/01/18 01:52:51;;;;;;;23.92;19.40;;;;;;;-4.30;100.00;99333.06;1028783;28;20058;-84
2024/01/18 01:53:23;;;;;;;23.88;17.63;;;;;;;-4.40;100.00;99324.56;1034389;28;20139;-84
2024/01/18 01:53:54;;;;;;;22.17;18.42;;;;;;;-4.43;100.00;99322.28;1034279;28;20376;-84
2024/01/18 01:54:29;;;;;;;23.45;16.55;;;;;;;-4.30;100.00;99321.84;1035509;28;20423;-84
2024/01/18 01:55:02;;;;;;;23.77;18.40;;;;;;;-4.23;100.00;99326.25;1030128;28;20393;-84
2024/01/18 01:55:34;;;;;;;20.17;17.00;;;;;;;-4.21;100.00;99320.88;1036684;28;20299;-84
2024/01/18 01:56:06;;;;;;;23.92;18.10;;;;;;;-4.24;100.00;99324.63;1032396;28;20659;-84
2024/01/18 01:56:38;;;;;;;27.83;19.05;;;;;;;-4.37;100.00;99316.47;1026941;28;20035;-85
2024/01/18 01:57:09;;;;;;;25.52;19.20;;;;;;;-4.34;100.00;99315.34;1026923;28;20313;-84
2024/01/18 01:57:46;;;;;;;23.88;18.65;;;;;;;-4.32;100.00;99319.41;1033576;28;20308;-84
2024/01/18 01:58:19;;;;;;;20.80;17.45;;;;;;;-4.23;100.00;99321.03;1039109;28;20654;-84
2024/01/18 01:58:51;;;;;;;25.38;19.25;;;;;;;-4.15;100.00;99321.03;1033018;28;20684;-84
2024/01/18 01:59:23;;;;;;;20.95;18.38;;;;;;;-4.15;100.00;99323.66;1031224;28;20298;-84
2024/01/18 01:59:55;;;;;;;22.95;18.42;;;;;;;-4.14;100.00;99321.88;1027412;28;20301;-84
2024/01/18 02:00:27;;;;;;;24.35;18.95;;;;;;;-4.11;100.00;99319.78;1028656;28;20301;-84
2024/01/18 02:00:59;;;;;;;24.25;19.00;;;;;;;-4.10;100.00;99326.63;1034047;28;20836;-84
2024/01/18 02:01:30;;;;;;;28.28;19.40;;;;;;;-4.08;100.00;99321.25;1032467;28;20305;-84
2024/01/18 02:02:03;;;;;;;25.00;19.00;;;;;;;-4.05;100.00;99321.75;1035266;28;20909;-84
2024/01/18 02:02:34;;;;;;;21.75;18.55;;;;;;;-4.06;100.00;99325.31;1031639;28;20312;-84
2024/01/18 02:03:06;;;;;;;26.10;20.67;;;;;;;-4.05;100.00;99321.75;1031081;28;20846;-84
2024/01/18 02:03:37;;;;;;;29.50;20.08;;;;;;;-4.06;100.00;99325.31;1033505;28;20308;-84
2024/01/18 02:04:09;;;;;;;24.23;18.92;;;;;;;-4.03;100.00;99325.97;1033888;28;20298;-84
2024/01/18 02:04:42;;;;;;;24.23;19.13;;;;;;;-4.05;100.00;99321.75;1032052;28;20290;-84
2024/01/18 02:05:14;;;;;;;25.55;20.98;;;;;;;-4.03;100.00;99324.19;1030948;28;20317;-84
2024/01/18 02:05:46;;;;;;;25.80;19.75;;;;;;;-4.02;100.00;99330.19;1026115;28;20303;-84
2024/01/18 02:06:17;;;;;;;24.48;19.77;;;;;;;-4.02;100.00;99330.19;1033431;28;20309;-84
2024/01/18 02:06:51;;;;;;;24.90;20.42;;;;;;;-4.06;100.00;99329.69;1034053;28;20388;-84
2024/01/18 02:07:25;;;;;;;24.44;19.24;;;;;;;-4.14;100.00;99324.47;1023876;28;20678;-84
2024/01/18 02:07:56;;;;;;;25.14;20.58;;;;;;;-4.19;100.00;99324.94;1030369;28;20065;-84
2024/01/18 02:08:28;;;;;;;27.84;20.78;;;;;;;-4.21;100.00;99323.47;1035052;28;20046;-84
2024/01/18 02:09:03;;;;;;;27.70;20.76;;;;;;;-4.20;100.00;99323.31;1031144;28;20089;-84
2024/01/18 02:09:35;;;;;;;25.30;21.04;;;;;;;-4.21;100.00;99326.88;1035312;28;20042;-84
2024/01/18 02:10:09;;;;;;;25.28;20.20;;;;;;;-4.48;100.00;99324.53;1032679;28;20050;-84
2024/01/18 02:10:41;;;;;;;27.92;21.15;;;;;;;-4.57;100.00;99322.88;1028203;28;20141;-84
2024/01/18 02:11:14;;;;;;;27.88;20.38;;;;;;;-4.58;100.00;99324.66;1029598;28;20301;-84
2024/01/18 02:11:45;;;;;;;23.90;19.20;;;;;;;-4.59;100.00;99324.81;1029239;28;20305;-84
2024/01/18 02:12:18;;;;;;;25.52;20.63;;;;;;;-4.64;100.00;99321.88;1036195;28;20663;-84
2024/01/18 02:12:52;;;;;;;23.70;19.30;;;;;;;-4.66;100.00;99322.00;1034256;28;20304;-84
2024/01/18 02:13:24;;;;;;;26.55;18.83;;;;;;;-4.67;100.00;99325.59;1035982;28;20300;-84
2024/01/18 02:13:56;;;;;;;31.67;19.10;;;;;;;-4.60;100.00;99328.41;1039623;28;20302;-84
2024/01/18 02:14:28;;;;;;;21.68;19.06;;;;;;;-4.59;100.00;99327.44;1036661;28;20387;-84
2024/01/18 02:15:00;;;;;;;23.45;18.38;;;;;;;-4.58;100.00;99322.06;1027423;28;20047;-84
2024/01/18 02:15:34;;;;;;;25.73;20.02;;;;;;;-4.56;100.00;99324.50;1033230;28;20296;-84
2024/01/18 02:16:05;;;;;;;23.90;17.88;;;;;;;-4.53;100.00;99322.41;1026220;28;20310;-84
2024/01/18 02:16:37;;;;;;;23.30;18.35;;;;;;;-4.67;100.00;99323.00;1033294;28;20410;-84
2024/01/18 02:17:09;;;;;;;22.73;19.90;;;;;;;-4.60;100.00;99325.78;1037749;28;20660;-84
2024/01/18 02:17:40;;;;;;;21.63;18.00;;;;;;;-4.77;100.00;99324.91;1035601;28;20334;-84
2024/01/18 02:18:12;;;;;;;29.15;20.33;;;;;;;-4.80;100.00;99325.22;1030380;28;20297;-84
2024/01/18 02:18:44;;;;;;;20.98;18.40;;;;;;;-4.80;100.00;99331.22;1029325;28;20333;-84
2024/01/18 02:19:16;;;;;;;21.35;18.10;;;;;;;-4.79;100.00;99327.66;1036825;28;20311;-83
2024/01/18 02:19:47;;;;;;;25.02;19.45;;;;;;;-4.71;100.00;99330.28;1038160;28;20363;-84
2024/01/18 02:20:19;;;;;;;24.80;17.73;;;;;;;-4.63;100.00;99323.50;1031235;28;20652;-84
2024/01/18 02:20:51;;;;;;;21.98;18.65;;;;;;;-4.56;100.00;99327.09;1031744;28;21310;-84
2024/01/18 02:21:25;;;;;;;23.48;19.05;;;;;;;-4.54;100.00;99330.34;1031929;28;20304;-84
2024/01/18 02:21:59;;;;;;;23.77;18.88;;;;;;;-4.75;100.00;99328.97;1032408;28;20307;-83
2024/01/18 02:22:32;;;;;;;24.90;19.30;;;;;;;-4.76;100.00;99331.72;1031973;28;20304;-84
2024/01/18 02:23:05;;;;;;;20.73;17.00;;;;;;;-4.76;100.00;99327.34;1037561;28;20315;-84
2024/01/18 02:23:37;;;;;;;19.55;16.63;;;;;;;-4.74;100.00;99329.78;1029505;28;20290;-84
2024/01/18 02:24:22;;;;;;;24.15;18.88;;;;;;;-4.84;100.00;99326.50;1034162;28;20315;-84
2024/01/18 02:25:18;;;;;;;24.14;17.32;;;;;;;-4.82;100.00;99330.56;1038026;28;20692;-84
2024/01/18 02:25:50;;;;;;;22.88;17.94;;;;;;;-4.80;100.00;99326.03;1038180;28;20054;-84
2024/01/18 02:26:22;;;;;;;25.13;18.35;;;;;;;-4.74;100.00;99330.59;1036351;28;20084;-84